sensor_id;sensor_type;location;lat;lon;timestamp;pressure;altitude;pressure_sealevel;temperature;humidity
19594;BME280;9944;48.240;16.478;2023-12-14T00:01:50;98493.03;;;3.52;89.40
19594;BME280;9944;48.240;16.478;2023-12-14T00:05:55;98500.84;;;3.55;89.18
19594;BME280;9944;48.240;16.478;2023-12-14T00:09:58;98513.91;;;3.58;89.36
19594;BME280;9944;48.240;16.478;2023-12-14T00:14:01;98513.03;;;3.56;89.19
19594;BME280;9944;48.240;16.478;2023-12-14T00:18:04;98523.50;;;3.59;89.36
19594;BME280;9944;48.240;16.478;2023-12-14T00:22:10;98528.72;;;3.64;89.30
19594;BME280;9944;48.240;16.478;2023-12-14T00:26:13;98527.88;;;3.68;89.39
19594;BME280;9944;48.240;16.478;2023-12-14T00:30:17;98529.59;;;3.71;89.29
19594;BME280;9944;48.240;16.478;2023-12-14T00:34:20;98527.88;;;3.73;89.35
19594;BME280;9944;48.240;16.478;2023-12-14T00:38:25;98538.31;;;3.73;88.95
19594;BME280;9944;48.240;16.478;2023-12-14T00:42:28;98542.66;;;3.71;88.90
19594;BME280;9944;48.240;16.478;2023-12-14T00:46:31;98544.41;;;3.69;88.58
19594;BME280;9944;48.240;16.478;2023-12-14T00:50:34;98554.84;;;3.69;88.87
19594;BME280;9944;48.240;16.478;2023-12-14T00:54:39;98563.53;;;3.71;88.77
19594;BME280;9944;48.240;16.478;2023-12-14T00:58:42;98571.38;;;3.71;89.00
19594;BME280;9944;48.240;16.478;2023-12-14T01:02:46;98578.34;;;3.70;88.51
19594;BME280;9944;48.240;16.478;2023-12-14T01:06:49;98584.41;;;3.71;88.65
19594;BME280;9944;48.240;16.478;2023-12-14T01:10:54;98584.41;;;3.71;88.65
19594;BME280;9944;48.240;16.478;2023-12-14T01:14:57;98585.28;;;3.66;88.29
19594;BME280;9944;48.240;16.478;2023-12-14T01:19:01;98595.69;;;3.65;88.33
19594;BME280;9944;48.240;16.478;2023-12-14T01:23:04;98585.28;;;3.66;88.38
19594;BME280;9944;48.240;16.478;2023-12-14T01:27:09;98586.16;;;3.69;88.62
19594;BME280;9944;48.240;16.478;2023-12-14T01:31:15;98594.84;;;3.66;88.36
19594;BME280;9944;48.240;16.478;2023-12-14T01:35:19;98589.63;;;3.68;88.29
19594;BME280;9944;48.240;16.478;2023-12-14T01:39:22;98593.97;;;3.67;88.31
19594;BME280;9944;48.240;16.478;2023-12-14T01:43:27;98597.47;;;3.66;88.13
19594;BME280;9944;48.240;16.478;2023-12-14T01:47:30;98598.31;;;3.66;88.18
19594;BME280;9944;48.240;16.478;2023-12-14T01:51:33;98600.06;;;3.68;88.14
19594;BME280;9944;48.240;16.478;2023-12-14T01:55:37;98600.94;;;3.68;87.89
19594;BME280;9944;48.240;16.478;2023-12-14T01:59:42;98608.78;;;3.68;88.05
19594;BME280;9944;48.240;16.478;2023-12-14T02:03:45;98611.38;;;3.68;87.98
19594;BME280;9944;48.240;16.478;2023-12-14T02:07:49;98612.25;;;3.69;87.93
19594;BME280;9944;48.240;16.478;2023-12-14T02:11:53;98613.97;;;3.66;87.84
19594;BME280;9944;48.240;16.478;2023-12-14T02:15:57;98619.19;;;3.63;87.62
19594;BME280;9944;48.240;16.478;2023-12-14T02:20:00;98622.66;;;3.59;87.51
19594;BME280;9944;48.240;16.478;2023-12-14T02:24:05;98626.09;;;3.58;87.55
19594;BME280;9944;48.240;16.478;2023-12-14T02:28:08;98632.19;;;3.56;87.88
19594;BME280;9944;48.240;16.478;2023-12-14T02:32:12;98640.84;;;3.52;87.53
19594;BME280;9944;48.240;16.478;2023-12-14T02:36:15;98652.16;;;3.51;87.45
19594;BME280;9944;48.240;16.478;2023-12-14T02:40:20;98657.38;;;3.49;87.37
19594;BME280;9944;48.240;16.478;2023-12-14T02:44:23;98666.03;;;3.45;87.24
19594;BME280;9944;48.240;16.478;2023-12-14T02:48:26;98660.81;;;3.42;87.54
19594;BME280;9944;48.240;16.478;2023-12-14T02:52:29;98652.97;;;3.39;87.59
19594;BME280;9944;48.240;16.478;2023-12-14T02:56:35;98652.97;;;3.40;87.63
19594;BME280;9944;48.240;16.478;2023-12-14T03:05:31;98664.28;;;3.44;87.79
19594;BME280;9944;48.240;16.478;2023-12-14T03:09:35;98688.63;;;3.41;87.68
19594;BME280;9944;48.240;16.478;2023-12-14T03:13:40;98685.13;;;3.39;87.46
19594;BME280;9944;48.240;16.478;2023-12-14T03:17:43;98679.06;;;3.40;87.43
19594;BME280;9944;48.240;16.478;2023-12-14T03:21:47;98676.44;;;3.39;87.72
19594;BME280;9944;48.240;16.478;2023-12-14T03:25:50;98699.03;;;3.40;87.89
19594;BME280;9944;48.240;16.478;2023-12-14T03:29:55;98693.81;;;3.40;88.21
19594;BME280;9944;48.240;16.478;2023-12-14T03:33:58;98702.53;;;3.39;88.21
19594;BME280;9944;48.240;16.478;2023-12-14T03:38:01;98705.16;;;3.40;88.73
19594;BME280;9944;48.240;16.478;2023-12-14T03:42:04;98706.03;;;3.44;88.72
19594;BME280;9944;48.240;16.478;2023-12-14T03:46:09;98711.28;;;3.47;88.79
19594;BME280;9944;48.240;16.478;2023-12-14T03:50:12;98707.81;;;3.51;88.92
19594;BME280;9944;48.240;16.478;2023-12-14T03:54:16;98718.28;;;3.54;88.94
19594;BME280;9944;48.240;16.478;2023-12-14T03:58:19;98719.19;;;3.59;89.14
19594;BME280;9944;48.240;16.478;2023-12-14T04:02:23;98727.91;;;3.61;88.74
19594;BME280;9944;48.240;16.478;2023-12-14T04:06:26;98729.63;;;3.59;88.98
19594;BME280;9944;48.240;16.478;2023-12-14T04:10:30;98737.47;;;3.59;88.65
19594;BME280;9944;48.240;16.478;2023-12-14T04:14:33;98737.44;;;3.56;88.83
19594;BME280;9944;48.240;16.478;2023-12-14T04:18:38;98746.16;;;3.61;89.18
19594;BME280;9944;48.240;16.478;2023-12-14T04:22:43;98744.47;;;3.66;89.49
19594;BME280;9944;48.240;16.478;2023-12-14T04:26:46;98756.69;;;3.72;89.88
19594;BME280;9944;48.240;16.478;2023-12-14T04:30:49;98755.84;;;3.78;90.11
19594;BME280;9944;48.240;16.478;2023-12-14T04:34:54;98757.63;;;3.83;90.41
19594;BME280;9944;48.240;16.478;2023-12-14T04:38:57;98764.66;;;3.92;90.86
19594;BME280;9944;48.240;16.478;2023-12-14T04:43:00;98767.31;;;3.98;91.19
19594;BME280;9944;48.240;16.478;2023-12-14T04:47:04;98769.09;;;4.06;91.47
19594;BME280;9944;48.240;16.478;2023-12-14T04:51:12;98777.00;;;4.13;91.86
19594;BME280;9944;48.240;16.478;2023-12-14T04:55:15;98777.00;;;4.21;92.33
19594;BME280;9944;48.240;16.478;2023-12-14T04:59:19;98782.28;;;4.27;92.66
19594;BME280;9944;48.240;16.478;2023-12-14T05:03:22;98772.72;;;4.32;92.99
19594;BME280;9944;48.240;16.478;2023-12-14T05:07:27;98778.88;;;4.39;92.87
19594;BME280;9944;48.240;16.478;2023-12-14T05:11:32;98785.84;;;4.43;92.94
19594;BME280;9944;48.240;16.478;2023-12-14T05:15:35;98790.19;;;4.46;93.05
19594;BME280;9944;48.240;16.478;2023-12-14T05:19:38;98796.31;;;4.48;93.19
19594;BME280;9944;48.240;16.478;2023-12-14T05:23:43;98799.81;;;4.50;93.34
19594;BME280;9944;48.240;16.478;2023-12-14T05:27:46;98796.34;;;4.54;93.30
19594;BME280;9944;48.240;16.478;2023-12-14T05:31:50;98810.28;;;4.56;93.24
19594;BME280;9944;48.240;16.478;2023-12-14T05:35:53;98825.13;;;4.60;93.43
19594;BME280;9944;48.240;16.478;2023-12-14T05:39:58;98829.47;;;4.63;93.45
19594;BME280;9944;48.240;16.478;2023-12-14T05:44:01;98821.66;;;4.64;93.42
19594;BME280;9944;48.240;16.478;2023-12-14T05:48:05;98828.63;;;4.65;93.58
19594;BME280;9944;48.240;16.478;2023-12-14T05:52:08;98822.53;;;4.68;93.55
19594;BME280;9944;48.240;16.478;2023-12-14T05:56:13;98825.16;;;4.69;93.81
19594;BME280;9944;48.240;16.478;2023-12-14T06:00:17;98833.88;;;4.71;93.87
19594;BME280;9944;48.240;16.478;2023-12-14T06:04:21;98842.59;;;4.70;93.78
19594;BME280;9944;48.240;16.478;2023-12-14T06:08:24;98835.63;;;4.72;93.70
19594;BME280;9944;48.240;16.478;2023-12-14T06:12:29;98842.59;;;4.73;93.92
19594;BME280;9944;48.240;16.478;2023-12-14T06:16:33;98850.44;;;4.76;93.73
19594;BME280;9944;48.240;16.478;2023-12-14T06:20:36;98860.06;;;4.77;93.41
19594;BME280;9944;48.240;16.478;2023-12-14T06:24:39;98864.41;;;4.80;93.69
19594;BME280;9944;48.240;16.478;2023-12-14T06:28:43;98872.25;;;4.80;93.86
19594;BME280;9944;48.240;16.478;2023-12-14T06:32:46;98888.84;;;4.81;93.55
19594;BME280;9944;48.240;16.478;2023-12-14T06:36:50;98895.78;;;4.82;93.57
19594;BME280;9944;48.240;16.478;2023-12-14T06:40:53;98899.28;;;4.82;93.73
19594;BME280;9944;48.240;16.478;2023-12-14T06:44:58;98914.13;;;4.85;93.47
19594;BME280;9944;48.240;16.478;2023-12-14T06:49:02;98926.34;;;4.86;93.71
19594;BME280;9944;48.240;16.478;2023-12-14T06:53:05;98926.31;;;4.83;93.34
19594;BME280;9944;48.240;16.478;2023-12-14T06:57:09;98925.41;;;4.82;93.40
19594;BME280;9944;48.240;16.478;2023-12-14T07:01:14;98930.69;;;4.90;93.77
19594;BME280;9944;48.240;16.478;2023-12-14T07:05:17;98938.56;;;4.96;93.63
19594;BME280;9944;48.240;16.478;2023-12-14T07:09:20;98948.16;;;4.95;93.74
19594;BME280;9944;48.240;16.478;2023-12-14T07:13:24;98956.03;;;4.98;93.50
19594;BME280;9944;48.240;16.478;2023-12-14T07:17:29;98963.00;;;4.98;93.39
19594;BME280;9944;48.240;16.478;2023-12-14T07:21:32;98971.72;;;5.00;93.22
19594;BME280;9944;48.240;16.478;2023-12-14T07:25:35;98974.38;;;5.03;93.46
19594;BME280;9944;48.240;16.478;2023-12-14T07:29:38;98987.44;;;5.06;93.10
19594;BME280;9944;48.240;16.478;2023-12-14T07:33:43;98991.81;;;5.09;93.07
19594;BME280;9944;48.240;16.478;2023-12-14T07:37:46;98990.06;;;5.09;92.71
19594;BME280;9944;48.240;16.478;2023-12-14T07:41:49;98996.19;;;5.11;92.36
19594;BME280;9944;48.240;16.478;2023-12-14T07:45:53;99003.22;;;5.15;92.39
19594;BME280;9944;48.240;16.478;2023-12-14T07:49:57;99006.69;;;5.16;91.88
19594;BME280;9944;48.240;16.478;2023-12-14T07:54:00;99018.91;;;5.19;91.54
19594;BME280;9944;48.240;16.478;2023-12-14T07:58:05;99025.88;;;5.20;91.36
19594;BME280;9944;48.240;16.478;2023-12-14T08:02:10;99033.78;;;5.24;91.18
19594;BME280;9944;48.240;16.478;2023-12-14T08:06:15;99033.78;;;5.32;91.39
19594;BME280;9944;48.240;16.478;2023-12-14T08:10:18;99045.16;;;5.34;91.00
19594;BME280;9944;48.240;16.478;2023-12-14T08:14:22;99056.50;;;5.38;91.05
19594;BME280;9944;48.240;16.478;2023-12-14T08:18:26;99062.63;;;5.38;90.40
19594;BME280;9944;48.240;16.478;2023-12-14T08:22:30;99071.34;;;5.40;90.46
19594;BME280;9944;48.240;16.478;2023-12-14T08:26:34;99078.31;;;5.41;90.13
19594;BME280;9944;48.240;16.478;2023-12-14T08:30:37;99085.38;;;5.54;90.48
19594;BME280;9944;48.240;16.478;2023-12-14T08:34:41;99093.25;;;5.56;89.86
19594;BME280;9944;48.240;16.478;2023-12-14T08:38:46;99100.22;;;5.54;89.10
19594;BME280;9944;48.240;16.478;2023-12-14T08:42:49;99101.06;;;5.51;88.48
19594;BME280;9944;48.240;16.478;2023-12-14T08:46:52;99104.63;;;5.63;88.41
19594;BME280;9944;48.240;16.478;2023-12-14T08:50:55;99118.56;;;5.62;88.03
19594;BME280;9944;48.240;16.478;2023-12-14T08:55:00;99121.22;;;5.66;87.90
19594;BME280;9944;48.240;16.478;2023-12-14T08:59:04;99128.22;;;5.67;87.70
19594;BME280;9944;48.240;16.478;2023-12-14T09:03:07;99129.13;;;5.77;88.15
19594;BME280;9944;48.240;16.478;2023-12-14T09:07:11;99136.16;;;5.84;88.01
19594;BME280;9944;48.240;16.478;2023-12-14T09:11:16;99141.41;;;5.81;87.81
19594;BME280;9944;48.240;16.478;2023-12-14T09:15:19;99136.16;;;5.80;87.34
19594;BME280;9944;48.240;16.478;2023-12-14T09:19:23;99144.00;;;5.78;86.90
19594;BME280;9944;48.240;16.478;2023-12-14T09:23:27;99157.94;;;5.79;86.93
19594;BME280;9944;48.240;16.478;2023-12-14T09:27:31;99158.81;;;5.79;86.89
19594;BME280;9944;48.240;16.478;2023-12-14T09:31:35;99169.28;;;5.79;86.67
19594;BME280;9944;48.240;16.478;2023-12-14T09:35:39;99175.44;;;5.84;86.66
19594;BME280;9944;48.240;16.478;2023-12-14T09:39:42;99179.81;;;5.85;86.41
19594;BME280;9944;48.240;16.478;2023-12-14T09:43:49;99178.06;;;5.84;86.20
19594;BME280;9944;48.240;16.478;2023-12-14T09:47:53;99183.28;;;5.84;85.89
19594;BME280;9944;48.240;16.478;2023-12-14T09:51:57;99195.50;;;5.82;85.92
19594;BME280;9944;48.240;16.478;2023-12-14T09:56:00;99193.75;;;5.84;86.12
19594;BME280;9944;48.240;16.478;2023-12-14T10:00:06;99200.78;;;5.88;85.76
19594;BME280;9944;48.240;16.478;2023-12-14T10:04:14;99205.16;;;5.86;85.71
19594;BME280;9944;48.240;16.478;2023-12-14T10:08:18;99207.75;;;5.85;85.79
19594;BME280;9944;48.240;16.478;2023-12-14T10:12:21;99202.53;;;5.89;85.86
19594;BME280;9944;48.240;16.478;2023-12-14T10:16:28;99212.13;;;5.87;85.67
19594;BME280;9944;48.240;16.478;2023-12-14T10:20:33;99215.66;;;5.92;85.69
19594;BME280;9944;48.240;16.478;2023-12-14T10:24:36;99214.78;;;5.90;85.33
19594;BME280;9944;48.240;16.478;2023-12-14T10:28:39;99225.28;;;5.94;85.53
19594;BME280;9944;48.240;16.478;2023-12-14T10:32:46;99223.53;;;5.96;85.87
19594;BME280;9944;48.240;16.478;2023-12-14T10:36:51;99229.66;;;5.99;85.76
19594;BME280;9944;48.240;16.478;2023-12-14T10:40:55;99227.94;;;6.03;85.82
19594;BME280;9944;48.240;16.478;2023-12-14T10:45:00;99228.81;;;6.05;85.73
19594;BME280;9944;48.240;16.478;2023-12-14T10:49:22;99236.78;;;6.23;86.56
19594;BME280;9944;48.240;16.478;2023-12-14T10:53:26;99242.03;;;6.26;86.16
19594;BME280;9944;48.240;16.478;2023-12-14T10:57:30;99253.41;;;6.32;85.90
19594;BME280;9944;48.240;16.478;2023-12-14T11:01:33;99249.94;;;6.39;85.17
19594;BME280;9944;48.240;16.478;2023-12-14T11:05:38;99262.25;;;6.46;85.03
19594;BME280;9944;48.240;16.478;2023-12-14T11:09:44;99268.38;;;6.51;84.21
19594;BME280;9944;48.240;16.478;2023-12-14T11:13:50;99269.28;;;6.62;84.73
19594;BME280;9944;48.240;16.478;2023-12-14T11:18:20;99265.88;;;6.79;84.04
19594;BME280;9944;48.240;16.478;2023-12-14T11:22:27;99276.34;;;6.85;83.15
19594;BME280;9944;48.240;16.478;2023-12-14T11:26:31;99279.88;;;6.87;82.68
19594;BME280;9944;48.240;16.478;2023-12-14T11:30:35;99287.72;;;6.82;82.34
19594;BME280;9944;48.240;16.478;2023-12-14T11:34:53;99276.34;;;6.77;81.40
19594;BME280;9944;48.240;16.478;2023-12-14T11:38:57;99276.31;;;6.73;81.89
19594;BME280;9944;48.240;16.478;2023-12-14T11:43:01;99282.47;;;6.73;81.79
19594;BME280;9944;48.240;16.478;2023-12-14T11:47:09;99292.94;;;6.78;81.87
19594;BME280;9944;48.240;16.478;2023-12-14T11:51:12;99286.84;;;6.83;81.64
19594;BME280;9944;48.240;16.478;2023-12-14T11:55:17;99292.97;;;6.89;81.46
19594;BME280;9944;48.240;16.478;2023-12-14T11:59:20;99296.50;;;6.95;81.14
19594;BME280;9944;48.240;16.478;2023-12-14T12:03:24;99302.63;;;6.94;81.04
19594;BME280;9944;48.240;16.478;2023-12-14T12:07:27;99298.28;;;6.99;81.28
19594;BME280;9944;48.240;16.478;2023-12-14T12:11:32;99299.16;;;7.08;81.37
19594;BME280;9944;48.240;16.478;2023-12-14T12:15:35;99296.53;;;7.11;81.33
19594;BME280;9944;48.240;16.478;2023-12-14T12:19:39;99298.31;;;7.10;80.94
19594;BME280;9944;48.240;16.478;2023-12-14T12:23:44;99299.16;;;7.08;80.41
19594;BME280;9944;48.240;16.478;2023-12-14T12:27:49;99305.25;;;7.00;80.17
19594;BME280;9944;48.240;16.478;2023-12-14T12:31:52;99312.28;;;7.00;80.69
19594;BME280;9944;48.240;16.478;2023-12-14T12:35:57;99306.16;;;6.99;80.84
19594;BME280;9944;48.240;16.478;2023-12-14T12:40:00;99319.28;;;7.04;80.83
19594;BME280;9944;48.240;16.478;2023-12-14T12:44:05;99321.06;;;7.08;81.35
19594;BME280;9944;48.240;16.478;2023-12-14T12:48:10;99327.16;;;7.09;80.51
19594;BME280;9944;48.240;16.478;2023-12-14T12:52:13;99330.66;;;7.08;80.36
19594;BME280;9944;48.240;16.478;2023-12-14T12:56:16;99337.66;;;7.09;80.80
19594;BME280;9944;48.240;16.478;2023-12-14T13:00:21;99339.44;;;7.10;80.60
19594;BME280;9944;48.240;16.478;2023-12-14T13:04:24;99356.91;;;7.11;80.72
19594;BME280;9944;48.240;16.478;2023-12-14T13:08:28;99363.03;;;7.13;80.47
19594;BME280;9944;48.240;16.478;2023-12-14T13:12:32;99359.56;;;7.14;80.50
19594;BME280;9944;48.240;16.478;2023-12-14T13:16:38;99370.06;;;7.15;80.73
19594;BME280;9944;48.240;16.478;2023-12-14T13:20:42;99376.19;;;7.19;80.59
19594;BME280;9944;48.240;16.478;2023-12-14T13:24:46;99382.31;;;7.22;80.83
19594;BME280;9944;48.240;16.478;2023-12-14T13:28:49;99391.94;;;7.25;80.66
19594;BME280;9944;48.240;16.478;2023-12-14T13:32:54;99397.19;;;7.25;80.55
19594;BME280;9944;48.240;16.478;2023-12-14T13:36:57;99401.63;;;7.31;80.81
19594;BME280;9944;48.240;16.478;2023-12-14T13:41:03;99406.84;;;7.34;80.37
19594;BME280;9944;48.240;16.478;2023-12-14T13:45:08;99417.38;;;7.40;80.65
19594;BME280;9944;48.240;16.478;2023-12-14T13:49:13;99419.16;;;7.41;80.43
19594;BME280;9944;48.240;16.478;2023-12-14T13:53:16;99422.66;;;7.43;79.95
19594;BME280;9944;48.240;16.478;2023-12-14T13:57:21;99430.53;;;7.43;80.36
19594;BME280;9944;48.240;16.478;2023-12-14T14:01:24;99435.78;;;7.45;80.11
19594;BME280;9944;48.240;16.478;2023-12-14T14:05:29;99441.03;;;7.49;79.96
19594;BME280;9944;48.240;16.478;2023-12-14T14:09:32;99449.78;;;7.53;80.32
19594;BME280;9944;48.240;16.478;2023-12-14T14:13:36;99465.59;;;7.59;79.93
19594;BME280;9944;48.240;16.478;2023-12-14T14:17:39;99470.84;;;7.59;79.88
19594;BME280;9944;48.240;16.478;2023-12-14T14:21:44;99483.09;;;7.58;79.81
19594;BME280;9944;48.240;16.478;2023-12-14T14:25:49;99493.63;;;7.60;79.97
19594;BME280;9944;48.240;16.478;2023-12-14T14:29:56;99504.13;;;7.57;79.93
19594;BME280;9944;48.240;16.478;2023-12-14T14:33:59;99505.84;;;7.56;80.38
19594;BME280;9944;48.240;16.478;2023-12-14T14:38:04;99514.59;;;7.51;80.08
19594;BME280;9944;48.240;16.478;2023-12-14T14:42:08;99523.34;;;7.47;80.52
19594;BME280;9944;48.240;16.478;2023-12-14T14:46:12;99532.97;;;7.46;80.97
19594;BME280;9944;48.240;16.478;2023-12-14T14:50:15;99546.97;;;7.47;81.29
19594;BME280;9944;48.240;16.478;2023-12-14T14:54:20;99560.13;;;7.50;81.23
19594;BME280;9944;48.240;16.478;2023-12-14T14:58:23;99572.38;;;7.51;81.09
19594;BME280;9944;48.240;16.478;2023-12-14T15:02:26;99571.47;;;7.46;81.23
19594;BME280;9944;48.240;16.478;2023-12-14T15:06:29;99577.59;;;7.41;81.09
19594;BME280;9944;48.240;16.478;2023-12-14T15:10:34;99576.69;;;7.38;80.94
19594;BME280;9944;48.240;16.478;2023-12-14T15:14:37;99592.41;;;7.33;80.46
19594;BME280;9944;48.240;16.478;2023-12-14T15:18:40;99588.00;;;7.29;80.39
19594;BME280;9944;48.240;16.478;2023-12-14T15:22:44;99597.63;;;7.29;80.67
19594;BME280;9944;48.240;16.478;2023-12-14T15:26:50;99594.09;;;7.27;80.48
19594;BME280;9944;48.240;16.478;2023-12-14T15:30:53;99601.97;;;7.25;80.49
19594;BME280;9944;48.240;16.478;2023-12-14T15:34:56;99611.56;;;7.21;80.62
19594;BME280;9944;48.240;16.478;2023-12-14T15:39:01;99622.94;;;7.19;80.85
19594;BME280;9944;48.240;16.478;2023-12-14T15:43:09;99625.56;;;7.19;80.72
19594;BME280;9944;48.240;16.478;2023-12-14T15:47:13;99635.22;;;7.23;80.76
19594;BME280;9944;48.240;16.478;2023-12-14T15:51:16;99647.50;;;7.24;80.97
19594;BME280;9944;48.240;16.478;2023-12-14T15:55:20;99649.22;;;7.22;81.20
19594;BME280;9944;48.240;16.478;2023-12-14T15:59:25;99650.13;;;7.24;80.75
19594;BME280;9944;48.240;16.478;2023-12-14T16:03:29;99652.75;;;7.24;80.92
19594;BME280;9944;48.240;16.478;2023-12-14T16:07:33;99655.38;;;7.24;80.59
19594;BME280;9944;48.240;16.478;2023-12-14T16:11:36;99662.41;;;7.31;81.64
19594;BME280;9944;48.240;16.478;2023-12-14T16:15:41;99667.72;;;7.40;81.25
19594;BME280;9944;48.240;16.478;2023-12-14T16:19:44;99665.06;;;7.34;80.58
19594;BME280;9944;48.240;16.478;2023-12-14T16:23:50;99672.03;;;7.28;80.28
19594;BME280;9944;48.240;16.478;2023-12-14T16:27:54;99673.69;;;7.18;80.14
19594;BME280;9944;48.240;16.478;2023-12-14T16:31:58;99682.38;;;7.11;80.35
19594;BME280;9944;48.240;16.478;2023-12-14T16:36:02;99687.59;;;7.04;80.35
19594;BME280;9944;48.240;16.478;2023-12-14T16:40:13;99699.78;;;7.02;80.73
19594;BME280;9944;48.240;16.478;2023-12-14T16:44:18;99712.03;;;7.00;80.54
19594;BME280;9944;48.240;16.478;2023-12-14T16:48:22;99718.97;;;6.95;80.72
19594;BME280;9944;48.240;16.478;2023-12-14T16:52:25;99725.13;;;6.94;80.62
19594;BME280;9944;48.240;16.478;2023-12-14T16:56:31;99728.59;;;6.93;80.73
19594;BME280;9944;48.240;16.478;2023-12-14T17:00:34;99734.69;;;6.92;80.37
19594;BME280;9944;48.240;16.478;2023-12-14T17:04:39;99743.41;;;6.88;80.38
19594;BME280;9944;48.240;16.478;2023-12-14T17:08:42;99746.03;;;6.88;80.76
19594;BME280;9944;48.240;16.478;2023-12-14T17:12:46;99746.00;;;6.86;80.60
19594;BME280;9944;48.240;16.478;2023-12-14T17:16:49;99758.25;;;6.84;80.39
19594;BME280;9944;48.240;16.478;2023-12-14T17:20:56;99762.63;;;6.84;80.61
19594;BME280;9944;48.240;16.478;2023-12-14T17:24:59;99769.59;;;6.85;81.03
19594;BME280;9944;48.240;16.478;2023-12-14T17:29:04;99779.25;;;6.86;80.97
19594;BME280;9944;48.240;16.478;2023-12-14T17:33:10;99789.75;;;6.86;81.19
19594;BME280;9944;48.240;16.478;2023-12-14T17:37:16;99787.94;;;6.80;81.00
19594;BME280;9944;48.240;16.478;2023-12-14T17:41:19;99799.22;;;6.75;81.12
19594;BME280;9944;48.240;16.478;2023-12-14T17:45:23;99803.56;;;6.71;81.43
19594;BME280;9944;48.240;16.478;2023-12-14T17:49:26;99814.88;;;6.67;81.57
19594;BME280;9944;48.240;16.478;2023-12-14T17:53:31;99804.34;;;6.64;81.98
19594;BME280;9944;48.240;16.478;2023-12-14T17:57:35;99818.34;;;6.63;82.11
19594;BME280;9944;48.240;16.478;2023-12-14T18:01:43;99820.06;;;6.62;82.28
19594;BME280;9944;48.240;16.478;2023-12-14T18:05:48;99827.91;;;6.59;82.52
19594;BME280;9944;48.240;16.478;2023-12-14T18:09:52;99836.63;;;6.58;82.81
19594;BME280;9944;48.240;16.478;2023-12-14T18:13:55;99849.75;;;6.58;82.99
19594;BME280;9944;48.240;16.478;2023-12-14T18:17:59;99842.72;;;6.57;83.22
19594;BME280;9944;48.240;16.478;2023-12-14T18:22:02;99846.22;;;6.56;83.66
19594;BME280;9944;48.240;16.478;2023-12-14T18:26:08;99853.22;;;6.57;83.62
19594;BME280;9944;48.240;16.478;2023-12-14T18:30:12;99863.69;;;6.57;83.84
19594;BME280;9944;48.240;16.478;2023-12-14T18:34:16;99867.16;;;6.53;83.67
19594;BME280;9944;48.240;16.478;2023-12-14T18:38:19;99879.31;;;6.48;83.59
19594;BME280;9944;48.240;16.478;2023-12-14T18:42:24;99875.75;;;6.43;83.82
19594;BME280;9944;48.240;16.478;2023-12-14T18:46:27;99884.44;;;6.40;83.67
19594;BME280;9944;48.240;16.478;2023-12-14T18:50:30;99886.13;;;6.37;83.78
19594;BME280;9944;48.240;16.478;2023-12-14T18:54:33;99893.06;;;6.35;83.56
19594;BME280;9944;48.240;16.478;2023-12-14T18:58:39;99894.78;;;6.33;83.48
19594;BME280;9944;48.240;16.478;2023-12-14T19:02:42;99909.63;;;6.30;83.81
19594;BME280;9944;48.240;16.478;2023-12-14T19:06:45;99901.75;;;6.30;83.74
19594;BME280;9944;48.240;16.478;2023-12-14T19:10:48;99914.84;;;6.29;84.08
19594;BME280;9944;48.240;16.478;2023-12-14T19:14:53;99918.31;;;6.28;83.86
19594;BME280;9944;48.240;16.478;2023-12-14T19:18:56;99927.03;;;6.25;83.75
19594;BME280;9944;48.240;16.478;2023-12-14T19:23:00;99938.31;;;6.21;83.63
19594;BME280;9944;48.240;16.478;2023-12-14T19:27:04;99942.69;;;6.22;83.89
19594;BME280;9944;48.240;16.478;2023-12-14T19:31:09;99941.84;;;6.23;83.84
19594;BME280;9944;48.240;16.478;2023-12-14T19:35:12;99946.22;;;6.24;83.91
19594;BME280;9944;48.240;16.478;2023-12-14T19:39:16;99943.59;;;6.24;84.07
19594;BME280;9944;48.240;16.478;2023-12-14T19:43:21;99958.47;;;6.25;84.00
19594;BME280;9944;48.240;16.478;2023-12-14T19:47:26;99953.22;;;6.24;83.54
19594;BME280;9944;48.240;16.478;2023-12-14T19:51:29;99964.56;;;6.23;83.23
19594;BME280;9944;48.240;16.478;2023-12-14T19:55:34;99986.38;;;6.22;82.77
19594;BME280;9944;48.240;16.478;2023-12-14T19:59:37;99990.75;;;6.21;82.33
19594;BME280;9944;48.240;16.478;2023-12-14T20:03:43;99983.78;;;6.23;82.24
19594;BME280;9944;48.240;16.478;2023-12-14T20:07:46;99994.31;;;6.25;82.06
19594;BME280;9944;48.240;16.478;2023-12-14T20:11:49;100001.28;;;6.26;81.78
19594;BME280;9944;48.240;16.478;2023-12-14T20:15:52;100004.81;;;6.26;81.77
19594;BME280;9944;48.240;16.478;2023-12-14T20:19:57;100014.44;;;6.27;81.33
19594;BME280;9944;48.240;16.478;2023-12-14T20:24:01;100021.41;;;6.27;81.39
19594;BME280;9944;48.240;16.478;2023-12-14T20:28:04;100024.91;;;6.27;81.42
19594;BME280;9944;48.240;16.478;2023-12-14T20:32:07;100024.91;;;6.27;81.21
19594;BME280;9944;48.240;16.478;2023-12-14T20:36:12;100034.56;;;6.28;80.97
19594;BME280;9944;48.240;16.478;2023-12-14T20:40:17;100039.81;;;6.28;80.86
19594;BME280;9944;48.240;16.478;2023-12-14T20:44:21;100036.28;;;6.28;80.67
19594;BME280;9944;48.240;16.478;2023-12-14T20:48:24;100045.00;;;6.27;80.92
19594;BME280;9944;48.240;16.478;2023-12-14T20:52:30;100058.13;;;6.27;81.02
19594;BME280;9944;48.240;16.478;2023-12-14T20:56:33;100062.50;;;6.26;80.73
19594;BME280;9944;48.240;16.478;2023-12-14T21:00:36;100059.00;;;6.27;80.79
19594;BME280;9944;48.240;16.478;2023-12-14T21:04:39;100069.41;;;6.24;80.69
19594;BME280;9944;48.240;16.478;2023-12-14T21:08:44;100069.38;;;6.21;80.79
19594;BME280;9944;48.240;16.478;2023-12-14T21:12:47;100079.00;;;6.22;80.90
19594;BME280;9944;48.240;16.478;2023-12-14T21:16:50;100084.25;;;6.22;80.80
19594;BME280;9944;48.240;16.478;2023-12-14T21:20:54;100088.66;;;6.23;81.14
19594;BME280;9944;48.240;16.478;2023-12-14T21:24:58;100088.66;;;6.23;81.11
19594;BME280;9944;48.240;16.478;2023-12-14T21:29:03;100100.00;;;6.24;81.09
19594;BME280;9944;48.240;16.478;2023-12-14T21:33:08;100103.53;;;6.26;81.37
19594;BME280;9944;48.240;16.478;2023-12-14T21:37:12;100101.81;;;6.26;81.11
19594;BME280;9944;48.240;16.478;2023-12-14T21:41:16;100110.53;;;6.25;81.09
19594;BME280;9944;48.240;16.478;2023-12-14T21:45:19;100119.22;;;6.24;80.98
19594;BME280;9944;48.240;16.478;2023-12-14T21:49:24;100120.13;;;6.25;81.07
19594;BME280;9944;48.240;16.478;2023-12-14T21:53:27;100130.66;;;6.26;81.11